sensor_id;sensor_type;location;lat;lon;timestamp;temperature;humidity
5286;DHT22;2665;53.112;7.358;2023-04-25T03:21:32;5.50;56.30
5286;DHT22;2665;53.112;7.358;2023-04-25T03:24:01;5.40;99.90
5286;DHT22;2665;53.112;7.358;2023-04-25T03:26:27;5.40;99.90
5286;DHT22;2665;53.112;7.358;2023-04-25T03:28:53;5.40;99.90
5286;DHT22;2665;53.112;7.358;2023-04-25T03:31:19;5.40;49.00
5286;DHT22;2665;53.112;7.358;2023-04-25T03:33:45;5.40;96.80
5286;DHT22;2665;53.112;7.358;2023-04-25T03:36:10;5.40;99.90
5286;DHT22;2665;53.112;7.358;2023-04-25T03:38:36;5.30;99.90
5286;DHT22;2665;53.112;7.358;2023-04-25T03:41:02;5.30;99.90
5286;DHT22;2665;53.112;7.358;2023-04-25T03:43:27;5.30;99.90
5286;DHT22;2665;53.112;7.358;2023-04-25T03:45:53;5.30;1.00
5286;DHT22;2665;53.112;7.358;2023-04-25T03:48:19;5.30;1.00
5286;DHT22;2665;53.112;7.358;2023-04-25T03:50:47;5.30;1.00
5286;DHT22;2665;53.112;7.358;2023-04-25T03:53:12;5.20;1.00
5286;DHT22;2665;53.112;7.358;2023-04-25T03:55:38;5.20;1.00
5286;DHT22;2665;53.112;7.358;2023-04-25T03:58:03;5.20;1.00
5286;DHT22;2665;53.112;7.358;2023-04-25T04:00:30;5.20;1.00
5286;DHT22;2665;53.112;7.358;2023-04-25T04:02:55;5.20;1.00
5286;DHT22;2665;53.112;7.358;2023-04-25T04:05:21;5.20;1.00
5286;DHT22;2665;53.112;7.358;2023-04-25T04:07:47;5.20;99.90
5286;DHT22;2665;53.112;7.358;2023-04-25T04:10:13;5.10;1.00
5286;DHT22;2665;53.112;7.358;2023-04-25T04:12:38;5.00;1.00
5286;DHT22;2665;53.112;7.358;2023-04-25T04:15:05;4.80;1.00
5286;DHT22;2665;53.112;7.358;2023-04-25T04:17:31;4.70;99.90
5286;DHT22;2665;53.112;7.358;2023-04-25T04:19:57;4.60;90.70
5286;DHT22;2665;53.112;7.358;2023-04-25T04:22:24;4.60;26.70
5286;DHT22;2665;53.112;7.358;2023-04-25T04:24:50;4.50;1.00
5286;DHT22;2665;53.112;7.358;2023-04-25T04:27:18;4.50;9.70
5286;DHT22;2665;53.112;7.358;2023-04-25T04:29:45;4.40;40.50
5286;DHT22;2665;53.112;7.358;2023-04-25T04:32:12;4.40;1.00
5286;DHT22;2665;53.112;7.358;2023-04-25T04:34:37;4.40;71.80
5286;DHT22;2665;53.112;7.358;2023-04-25T04:37:05;4.40;99.90
5286;DHT22;2665;53.112;7.358;2023-04-25T04:39:32;4.30;1.00
5286;DHT22;2665;53.112;7.358;2023-04-25T04:41:58;4.30;1.00
5286;DHT22;2665;53.112;7.358;2023-04-25T04:44:24;4.30;1.00
5286;DHT22;2665;53.112;7.358;2023-04-25T04:46:50;4.40;99.90
5286;DHT22;2665;53.112;7.358;2023-04-25T04:49:16;4.50;99.90
5286;DHT22;2665;53.112;7.358;2023-04-25T04:51:43;4.60;99.90
5286;DHT22;2665;53.112;7.358;2023-04-25T04:54:12;4.70;1.00
5286;DHT22;2665;53.112;7.358;2023-04-25T04:56:38;4.80;1.00
5286;DHT22;2665;53.112;7.358;2023-04-25T04:59:03;4.90;99.90
5286;DHT22;2665;53.112;7.358;2023-04-25T05:01:29;4.90;1.00
5286;DHT22;2665;53.112;7.358;2023-04-25T05:03:57;5.00;1.00
5286;DHT22;2665;53.112;7.358;2023-04-25T05:06:27;5.00;1.00
5286;DHT22;2665;53.112;7.358;2023-04-25T05:08:54;5.00;1.00
5286;DHT22;2665;53.112;7.358;2023-04-25T05:11:19;5.10;99.90
5286;DHT22;2665;53.112;7.358;2023-04-25T05:13:46;5.10;99.90
5286;DHT22;2665;53.112;7.358;2023-04-25T05:16:12;5.10;1.00
5286;DHT22;2665;53.112;7.358;2023-04-25T05:18:39;5.10;1.00
5286;DHT22;2665;53.112;7.358;2023-04-25T05:21:05;5.10;1.00
5286;DHT22;2665;53.112;7.358;2023-04-25T05:23:31;5.10;1.00
5286;DHT22;2665;53.112;7.358;2023-04-25T05:25:57;5.00;6.20
5286;DHT22;2665;53.112;7.358;2023-04-25T05:28:23;5.00;1.00
5286;DHT22;2665;53.112;7.358;2023-04-25T05:30:49;5.20;1.00
5286;DHT22;2665;53.112;7.358;2023-04-25T05:33:14;5.10;1.00
5286;DHT22;2665;53.112;7.358;2023-04-25T05:35:40;5.10;1.00
5286;DHT22;2665;53.112;7.358;2023-04-25T05:38:06;5.20;1.00
5286;DHT22;2665;53.112;7.358;2023-04-25T05:40:32;5.20;1.00
5286;DHT22;2665;53.112;7.358;2023-04-25T05:42:57;5.20;1.00
5286;DHT22;2665;53.112;7.358;2023-04-25T05:45:23;5.20;99.90
5286;DHT22;2665;53.112;7.358;2023-04-25T05:47:49;5.20;99.90
5286;DHT22;2665;53.112;7.358;2023-04-25T05:50:15;5.20;99.90
5286;DHT22;2665;53.112;7.358;2023-04-25T05:52:40;5.20;99.90
5286;DHT22;2665;53.112;7.358;2023-04-25T05:55:06;5.20;99.90
5286;DHT22;2665;53.112;7.358;2023-04-25T05:57:32;5.30;99.90
5286;DHT22;2665;53.112;7.358;2023-04-25T05:59:57;5.40;99.90
5286;DHT22;2665;53.112;7.358;2023-04-25T06:02:23;5.60;99.90
5286;DHT22;2665;53.112;7.358;2023-04-25T06:04:51;5.80;99.90
5286;DHT22;2665;53.112;7.358;2023-04-25T06:07:18;5.90;99.90
5286;DHT22;2665;53.112;7.358;2023-04-25T06:09:44;6.00;4.90
5286;DHT22;2665;53.112;7.358;2023-04-25T06:12:09;6.10;1.00
5286;DHT22;2665;53.112;7.358;2023-04-25T06:14:35;6.00;1.00
5286;DHT22;2665;53.112;7.358;2023-04-25T06:17:01;6.00;1.00
5286;DHT22;2665;53.112;7.358;2023-04-25T06:19:32;6.00;1.00
5286;DHT22;2665;53.112;7.358;2023-04-25T06:21:58;5.90;1.00
5286;DHT22;2665;53.112;7.358;2023-04-25T06:24:24;5.80;1.00
5286;DHT22;2665;53.112;7.358;2023-04-25T06:26:49;5.80;1.00
5286;DHT22;2665;53.112;7.358;2023-04-25T06:29:15;5.70;1.00
5286;DHT22;2665;53.112;7.358;2023-04-25T06:31:40;5.60;1.00
5286;DHT22;2665;53.112;7.358;2023-04-25T06:34:06;5.70;1.00
5286;DHT22;2665;53.112;7.358;2023-04-25T06:36:32;5.80;1.00
5286;DHT22;2665;53.112;7.358;2023-04-25T06:38:57;5.90;1.00
5286;DHT22;2665;53.112;7.358;2023-04-25T06:41:23;5.90;1.00
5286;DHT22;2665;53.112;7.358;2023-04-25T06:43:48;6.00;1.00
5286;DHT22;2665;53.112;7.358;2023-04-25T06:46:14;6.00;1.00
5286;DHT22;2665;53.112;7.358;2023-04-25T06:48:39;5.90;1.00
5286;DHT22;2665;53.112;7.358;2023-04-25T06:51:05;5.90;1.00
5286;DHT22;2665;53.112;7.358;2023-04-25T06:53:31;5.90;1.00
5286;DHT22;2665;53.112;7.358;2023-04-25T06:55:56;5.90;1.00
5286;DHT22;2665;53.112;7.358;2023-04-25T06:58:22;6.00;1.00
5286;DHT22;2665;53.112;7.358;2023-04-25T07:00:48;6.20;1.00
5286;DHT22;2665;53.112;7.358;2023-04-25T07:03:13;6.30;1.00
5286;DHT22;2665;53.112;7.358;2023-04-25T07:05:39;6.40;1.00
5286;DHT22;2665;53.112;7.358;2023-04-25T07:08:04;6.50;1.00
5286;DHT22;2665;53.112;7.358;2023-04-25T07:10:30;6.60;1.00
5286;DHT22;2665;53.112;7.358;2023-04-25T07:12:56;6.60;99.90
5286;DHT22;2665;53.112;7.358;2023-04-25T07:15:21;6.60;1.00
5286;DHT22;2665;53.112;7.358;2023-04-25T07:17:47;6.50;1.00
5286;DHT22;2665;53.112;7.358;2023-04-25T07:20:13;6.60;99.90
5286;DHT22;2665;53.112;7.358;2023-04-25T07:22:38;6.60;1.00
5286;DHT22;2665;53.112;7.358;2023-04-25T07:25:04;6.60;1.00
5286;DHT22;2665;53.112;7.358;2023-04-25T07:27:30;6.60;1.00
5286;DHT22;2665;53.112;7.358;2023-04-25T07:29:56;6.70;1.00
5286;DHT22;2665;53.112;7.358;2023-04-25T07:32:22;6.70;1.00
5286;DHT22;2665;53.112;7.358;2023-04-25T07:34:48;6.90;1.00
5286;DHT22;2665;53.112;7.358;2023-04-25T07:37:14;7.00;1.00
5286;DHT22;2665;53.112;7.358;2023-04-25T07:39:40;7.30;1.00
5286;DHT22;2665;53.112;7.358;2023-04-25T09:50:16;9.30;15.20
5286;DHT22;2665;53.112;7.358;2023-04-25T09:52:43;9.30;26.10
5286;DHT22;2665;53.112;7.358;2023-04-25T09:55:08;9.20;22.90
5286;DHT22;2665;53.112;7.358;2023-04-25T09:57:35;9.30;22.70
5286;DHT22;2665;53.112;7.358;2023-04-25T10:00:05;9.30;23.40
5286;DHT22;2665;53.112;7.358;2023-04-25T10:02:35;9.20;22.20
5286;DHT22;2665;53.112;7.358;2023-04-25T10:05:05;9.20;24.00
5286;DHT22;2665;53.112;7.358;2023-04-25T10:07:33;9.40;25.00
5286;DHT22;2665;53.112;7.358;2023-04-25T10:10:04;9.60;24.00
5286;DHT22;2665;53.112;7.358;2023-04-25T10:12:31;9.60;23.80
5286;DHT22;2665;53.112;7.358;2023-04-25T10:14:58;9.40;25.30
5286;DHT22;2665;53.112;7.358;2023-04-25T10:17:24;8.60;23.20
5286;DHT22;2665;53.112;7.358;2023-04-25T10:19:52;8.00;38.00
5286;DHT22;2665;53.112;7.358;2023-04-25T10:22:39;7.60;27.70
5286;DHT22;2665;53.112;7.358;2023-04-25T10:25:06;7.50;31.00
5286;DHT22;2665;53.112;7.358;2023-04-25T10:27:34;7.50;42.00
5286;DHT22;2665;53.112;7.358;2023-04-25T10:30:10;7.50;44.90
5286;DHT22;2665;53.112;7.358;2023-04-25T10:32:38;7.40;44.30
5286;DHT22;2665;53.112;7.358;2023-04-25T10:35:29;7.00;49.40
5286;DHT22;2665;53.112;7.358;2023-04-25T10:38:19;6.80;55.70
5286;DHT22;2665;53.112;7.358;2023-04-25T10:41:03;7.00;67.90
5286;DHT22;2665;53.112;7.358;2023-04-25T10:43:33;7.20;73.90
5286;DHT22;2665;53.112;7.358;2023-04-25T10:45:59;7.50;70.10
5286;DHT22;2665;53.112;7.358;2023-04-25T10:48:31;7.80;66.10
5286;DHT22;2665;53.112;7.358;2023-04-25T10:53:41;8.50;62.10
5286;DHT22;2665;53.112;7.358;2023-04-25T10:56:19;8.90;62.00
5286;DHT22;2665;53.112;7.358;2023-04-25T10:58:46;9.30;56.00
5286;DHT22;2665;53.112;7.358;2023-04-25T11:01:19;9.50;49.90
5286;DHT22;2665;53.112;7.358;2023-04-25T11:03:45;9.40;42.40
5286;DHT22;2665;53.112;7.358;2023-04-25T11:08:57;10.00;44.10
5286;DHT22;2665;53.112;7.358;2023-04-25T11:11:26;10.10;33.90
5286;DHT22;2665;53.112;7.358;2023-04-25T11:13:52;10.00;29.80
5286;DHT22;2665;53.112;7.358;2023-04-25T11:16:18;9.70;29.10
5286;DHT22;2665;53.112;7.358;2023-04-25T11:18:44;9.10;30.50
5286;DHT22;2665;53.112;7.358;2023-04-25T11:21:11;8.10;28.10
5286;DHT22;2665;53.112;7.358;2023-04-25T11:23:37;7.50;32.10
5286;DHT22;2665;53.112;7.358;2023-04-25T11:26:03;7.50;37.10
5286;DHT22;2665;53.112;7.358;2023-04-25T11:28:29;7.60;41.20
5286;DHT22;2665;53.112;7.358;2023-04-25T11:30:55;7.70;44.10
5286;DHT22;2665;53.112;7.358;2023-04-25T11:33:25;7.90;60.50
5286;DHT22;2665;53.112;7.358;2023-04-25T11:35:54;8.00;43.60
5286;DHT22;2665;53.112;7.358;2023-04-25T11:38:20;8.10;43.60
5286;DHT22;2665;53.112;7.358;2023-04-25T11:40:51;8.30;43.60
5286;DHT22;2665;53.112;7.358;2023-04-25T11:43:18;8.40;41.80
5286;DHT22;2665;53.112;7.358;2023-04-25T11:45:49;8.90;45.70
5286;DHT22;2665;53.112;7.358;2023-04-25T11:48:14;9.60;44.60
5286;DHT22;2665;53.112;7.358;2023-04-25T11:50:40;10.80;46.80
5286;DHT22;2665;53.112;7.358;2023-04-25T11:53:06;11.50;40.40
5286;DHT22;2665;53.112;7.358;2023-04-25T11:55:33;11.30;30.00
5286;DHT22;2665;53.112;7.358;2023-04-25T11:58:00;11.10;26.30
5286;DHT22;2665;53.112;7.358;2023-04-25T12:00:26;11.40;25.50
5286;DHT22;2665;53.112;7.358;2023-04-25T12:02:56;11.20;23.90
5286;DHT22;2665;53.112;7.358;2023-04-25T12:05:28;10.60;22.60
5286;DHT22;2665;53.112;7.358;2023-04-25T12:07:54;9.90;23.30
5286;DHT22;2665;53.112;7.358;2023-04-25T12:10:20;9.60;26.10
5286;DHT22;2665;53.112;7.358;2023-04-25T12:12:47;9.40;27.60
5286;DHT22;2665;53.112;7.358;2023-04-25T12:15:23;9.20;29.80
5286;DHT22;2665;53.112;7.358;2023-04-25T12:17:50;9.10;30.30
5286;DHT22;2665;53.112;7.358;2023-04-25T12:20:18;9.00;30.00
5286;DHT22;2665;53.112;7.358;2023-04-25T12:22:46;8.80;30.20
5286;DHT22;2665;53.112;7.358;2023-04-25T12:25:14;8.90;30.10
5286;DHT22;2665;53.112;7.358;2023-04-25T12:31:02;10.30;31.10
5286;DHT22;2665;53.112;7.358;2023-04-25T12:33:30;10.30;29.00
5286;DHT22;2665;53.112;7.358;2023-04-25T12:35:56;10.10;29.20
5286;DHT22;2665;53.112;7.358;2023-04-25T12:38:27;10.00;28.20
5286;DHT22;2665;53.112;7.358;2023-04-25T12:40:55;9.70;29.80
5286;DHT22;2665;53.112;7.358;2023-04-25T12:43:21;9.50;32.90
5286;DHT22;2665;53.112;7.358;2023-04-25T12:45:51;9.10;34.60
5286;DHT22;2665;53.112;7.358;2023-04-25T12:48:18;8.90;34.10
5286;DHT22;2665;53.112;7.358;2023-04-25T12:50:44;8.80;44.60
5286;DHT22;2665;53.112;7.358;2023-04-25T12:53:10;9.00;59.80
5286;DHT22;2665;53.112;7.358;2023-04-25T12:55:37;8.90;63.20
5286;DHT22;2665;53.112;7.358;2023-04-25T12:58:02;9.90;67.20
5286;DHT22;2665;53.112;7.358;2023-04-25T13:00:29;11.10;57.90
5286;DHT22;2665;53.112;7.358;2023-04-25T13:02:55;11.70;43.20
5286;DHT22;2665;53.112;7.358;2023-04-25T13:05:21;12.40;36.20
5286;DHT22;2665;53.112;7.358;2023-04-25T13:07:46;12.70;39.60
5286;DHT22;2665;53.112;7.358;2023-04-25T13:10:12;13.30;23.70
5286;DHT22;2665;53.112;7.358;2023-04-25T13:12:37;13.70;17.20
5286;DHT22;2665;53.112;7.358;2023-04-25T13:15:03;13.30;12.60
5286;DHT22;2665;53.112;7.358;2023-04-25T13:17:29;13.70;11.90
5286;DHT22;2665;53.112;7.358;2023-04-25T13:19:55;12.90;8.30
5286;DHT22;2665;53.112;7.358;2023-04-25T13:22:20;12.00;5.90
5286;DHT22;2665;53.112;7.358;2023-04-25T13:24:46;11.10;6.80
5286;DHT22;2665;53.112;7.358;2023-04-25T13:27:12;10.70;9.90
5286;DHT22;2665;53.112;7.358;2023-04-25T13:29:38;10.60;14.30
5286;DHT22;2665;53.112;7.358;2023-04-25T13:32:06;10.80;15.50
5286;DHT22;2665;53.112;7.358;2023-04-25T13:34:32;10.30;16.50
5286;DHT22;2665;53.112;7.358;2023-04-25T13:36:57;9.80;21.40
5286;DHT22;2665;53.112;7.358;2023-04-25T13:44:15;10.20;25.10
5286;DHT22;2665;53.112;7.358;2023-04-25T13:46:40;10.40;36.90
5286;DHT22;2665;53.112;7.358;2023-04-25T13:49:06;11.10;31.70
5286;DHT22;2665;53.112;7.358;2023-04-25T13:51:32;11.30;30.50
5286;DHT22;2665;53.112;7.358;2023-04-25T13:53:57;11.40;23.40
5286;DHT22;2665;53.112;7.358;2023-04-25T13:56:23;10.60;22.40
5286;DHT22;2665;53.112;7.358;2023-04-25T13:58:50;10.00;20.80
5286;DHT22;2665;53.112;7.358;2023-04-25T14:01:17;9.90;25.90
5286;DHT22;2665;53.112;7.358;2023-04-25T14:03:42;10.50;26.80
5286;DHT22;2665;53.112;7.358;2023-04-25T14:06:08;11.70;25.80
5286;DHT22;2665;53.112;7.358;2023-04-25T14:08:34;12.80;19.60
5286;DHT22;2665;53.112;7.358;2023-04-25T14:11:00;13.80;14.80
5286;DHT22;2665;53.112;7.358;2023-04-25T14:13:26;14.10;7.20
5286;DHT22;2665;53.112;7.358;2023-04-25T14:15:52;13.00;3.10
5286;DHT22;2665;53.112;7.358;2023-04-25T14:18:18;11.90;3.60
5286;DHT22;2665;53.112;7.358;2023-04-25T14:20:44;11.20;5.40
5286;DHT22;2665;53.112;7.358;2023-04-25T14:23:10;10.70;6.90
5286;DHT22;2665;53.112;7.358;2023-04-25T14:25:36;10.40;9.80
5286;DHT22;2665;53.112;7.358;2023-04-25T14:28:02;10.40;11.30
5286;DHT22;2665;53.112;7.358;2023-04-25T14:30:28;11.30;15.30
5286;DHT22;2665;53.112;7.358;2023-04-25T14:32:54;12.10;12.90
5286;DHT22;2665;53.112;7.358;2023-04-25T14:35:19;11.60;9.60
5286;DHT22;2665;53.112;7.358;2023-04-25T14:37:45;11.10;9.20
5286;DHT22;2665;53.112;7.358;2023-04-25T14:40:12;11.10;11.40
5286;DHT22;2665;53.112;7.358;2023-04-25T14:42:39;12.10;14.30
5286;DHT22;2665;53.112;7.358;2023-04-25T14:45:06;13.10;13.60
5286;DHT22;2665;53.112;7.358;2023-04-25T14:47:32;13.80;11.40
5286;DHT22;2665;53.112;7.358;2023-04-25T14:49:58;13.00;6.70
5286;DHT22;2665;53.112;7.358;2023-04-25T14:52:24;12.10;5.70
5286;DHT22;2665;53.112;7.358;2023-04-25T14:57:17;11.50;1.00
5286;DHT22;2665;53.112;7.358;2023-04-25T14:59:42;11.00;6.70
5286;DHT22;2665;53.112;7.358;2023-04-25T15:02:08;10.50;9.10
5286;DHT22;2665;53.112;7.358;2023-04-25T15:04:34;10.20;10.20
5286;DHT22;2665;53.112;7.358;2023-04-25T15:06:59;9.90;11.40
5286;DHT22;2665;53.112;7.358;2023-04-25T15:09:26;9.70;12.50
5286;DHT22;2665;53.112;7.358;2023-04-25T15:11:51;9.70;13.80
5286;DHT22;2665;53.112;7.358;2023-04-25T15:14:17;9.90;16.80
5286;DHT22;2665;53.112;7.358;2023-04-25T15:16:43;11.20;17.70
5286;DHT22;2665;53.112;7.358;2023-04-25T15:19:09;11.90;12.80
5286;DHT22;2665;53.112;7.358;2023-04-25T15:21:35;11.90;12.60
5286;DHT22;2665;53.112;7.358;2023-04-25T15:24:00;11.30;9.20
5286;DHT22;2665;53.112;7.358;2023-04-25T15:28:53;11.10;4.60
5286;DHT22;2665;53.112;7.358;2023-04-25T15:31:18;11.20;15.60
5286;DHT22;2665;53.112;7.358;2023-04-25T15:33:44;12.20;15.80
5286;DHT22;2665;53.112;7.358;2023-04-25T15:36:10;12.90;13.70
5286;DHT22;2665;53.112;7.358;2023-04-25T15:38:36;12.30;10.10
5286;DHT22;2665;53.112;7.358;2023-04-25T15:41:02;12.30;11.60
5286;DHT22;2665;53.112;7.358;2023-04-25T15:43:28;12.50;10.20
5286;DHT22;2665;53.112;7.358;2023-04-25T15:45:54;11.70;11.50
5286;DHT22;2665;53.112;7.358;2023-04-25T15:48:20;10.90;10.50
5286;DHT22;2665;53.112;7.358;2023-04-25T15:50:45;10.30;13.80
5286;DHT22;2665;53.112;7.358;2023-04-25T15:53:11;9.90;14.20
5286;DHT22;2665;53.112;7.358;2023-04-25T15:55:37;9.60;17.30
5286;DHT22;2665;53.112;7.358;2023-04-25T15:58:03;9.50;21.80
5286;DHT22;2665;53.112;7.358;2023-04-25T16:00:29;10.00;24.00
5286;DHT22;2665;53.112;7.358;2023-04-25T16:02:55;11.20;25.10
5286;DHT22;2665;53.112;7.358;2023-04-25T16:05:21;12.20;23.60
5286;DHT22;2665;53.112;7.358;2023-04-25T16:07:47;12.70;21.20
5286;DHT22;2665;53.112;7.358;2023-04-25T16:10:13;13.20;18.50
5286;DHT22;2665;53.112;7.358;2023-04-25T16:12:44;13.30;16.50
5286;DHT22;2665;53.112;7.358;2023-04-25T16:15:09;13.20;14.60
5286;DHT22;2665;53.112;7.358;2023-04-25T16:17:35;13.10;12.60
5286;DHT22;2665;53.112;7.358;2023-04-25T16:20:01;11.90;10.30
5286;DHT22;2665;53.112;7.358;2023-04-25T16:22:31;11.70;12.70
5286;DHT22;2665;53.112;7.358;2023-04-25T16:24:56;11.00;12.40
5286;DHT22;2665;53.112;7.358;2023-04-25T16:32:15;10.90;8.60
5286;DHT22;2665;53.112;7.358;2023-04-25T16:34:41;11.50;19.20
5286;DHT22;2665;53.112;7.358;2023-04-25T16:37:06;12.20;17.80
5286;DHT22;2665;53.112;7.358;2023-04-25T16:39:32;12.70;16.70
5286;DHT22;2665;53.112;7.358;2023-04-25T16:41:58;12.30;13.50
5286;DHT22;2665;53.112;7.358;2023-04-25T16:44:23;11.30;13.60
5286;DHT22;2665;53.112;7.358;2023-04-25T16:46:49;11.30;15.50
5286;DHT22;2665;53.112;7.358;2023-04-25T16:49:14;11.30;15.20
5286;DHT22;2665;53.112;7.358;2023-04-25T16:51:40;11.30;16.40
5286;DHT22;2665;53.112;7.358;2023-04-25T16:54:06;11.60;18.00
5286;DHT22;2665;53.112;7.358;2023-04-25T16:56:31;11.70;16.40
5286;DHT22;2665;53.112;7.358;2023-04-25T16:58:57;11.80;17.50
5286;DHT22;2665;53.112;7.358;2023-04-25T17:01:23;11.90;16.10
5286;DHT22;2665;53.112;7.358;2023-04-25T17:03:48;11.50;15.80
5286;DHT22;2665;53.112;7.358;2023-04-25T17:06:15;10.80;14.50
5286;DHT22;2665;53.112;7.358;2023-04-25T17:08:41;10.60;18.50
5286;DHT22;2665;53.112;7.358;2023-04-25T17:11:07;10.70;19.20
5286;DHT22;2665;53.112;7.358;2023-04-25T17:13:34;11.40;21.00
5286;DHT22;2665;53.112;7.358;2023-04-25T17:16:00;11.80;19.20
5286;DHT22;2665;53.112;7.358;2023-04-25T17:18:26;11.40;16.80
5286;DHT22;2665;53.112;7.358;2023-04-25T17:20:52;10.70;18.90
5286;DHT22;2665;53.112;7.358;2023-04-25T17:23:18;10.50;19.10
5286;DHT22;2665;53.112;7.358;2023-04-25T17:25:44;10.60;22.10
5286;DHT22;2665;53.112;7.358;2023-04-25T17:28:09;10.60;20.20
5286;DHT22;2665;53.112;7.358;2023-04-25T17:30:35;10.00;19.70
5286;DHT22;2665;53.112;7.358;2023-04-25T17:33:01;9.50;21.20
5286;DHT22;2665;53.112;7.358;2023-04-25T17:35:28;9.50;24.20
5286;DHT22;2665;53.112;7.358;2023-04-25T17:37:53;9.90;24.50
5286;DHT22;2665;53.112;7.358;2023-04-25T17:40:19;10.10;25.70
5286;DHT22;2665;53.112;7.358;2023-04-25T17:42:45;10.30;39.10
5286;DHT22;2665;53.112;7.358;2023-04-25T17:45:11;10.20;23.80
5286;DHT22;2665;53.112;7.358;2023-04-25T17:47:38;10.20;24.40
5286;DHT22;2665;53.112;7.358;2023-04-25T17:50:05;10.10;24.50
5286;DHT22;2665;53.112;7.358;2023-04-25T17:52:31;9.70;25.30
5286;DHT22;2665;53.112;7.358;2023-04-25T17:54:57;9.30;27.40
5286;DHT22;2665;53.112;7.358;2023-04-25T17:57:23;8.80;29.30
5286;DHT22;2665;53.112;7.358;2023-04-25T17:59:49;8.40;32.10
5286;DHT22;2665;53.112;7.358;2023-04-25T18:02:15;8.10;39.10
